Michigan, Nebraska
Current Conditions -  °F | °C
As of 1:53 PM on Wednesday 26 Nov 2014 (Local Time) from KODX Reporting Station
Clear Clear  
Wind Chill: 18°   Ceiling: Unl
Heat Index: 29°   Visibility: 10mi
Dew Point: 17°   Wind: 15mph
Humidity: 61%   Direction: 330°NNW
Pressure: 30.26"   Gusts: NA
Location:  41.579°N, 98.9733°W
Report Text: KODX 261953Z AUTO 33013KT 10SM CLR M02/M08 A3026 RMK AO2 SLP271 T10171083
Loading
Personal Weather Stations






























Interactive Weather Map New forecast layout! Learn more

10-Day Weather Forecast

Advertisements
Track Severe Weather on mobile